Startpagina
METAR-TAF:

METAR-TAF

Vliegvelden :

Nancy, Frankrijk

breedte: 48-41N, lengte: 006-13E, hoogte: 225 m

Actueel weer

Dit bericht is 37 minuten geleden gemaakt, om 02:00 UTC
Wind 2 kt uit het zuidoosten
Temperatuur 15°C
Vochtigheid 77%
Druk 1018 hPa
Zicht 10 km of meer
geen wolken onder 1500 m en geen cumulonimbus

METAR: LFSN 260200Z AUTO 14002KT CAVOK 15/11 Q1018

Tijdstip: 04:37 (02:37 UTC)


TAF: ontbreekt

Waarnemingen en weersverwachtingen van meer dan 4000 vliegvelden (METAR en TAF).

De beschikbare stations zijn de gele en rode punten op de kaart.

Ga met uw muis naar het station om de naam te zien.

Klik dan om waarnemingen en weersverwachtingen te zien.

kaart wijzigen: klik op de groene knoppen met een zwart kruis om in te zoomen, op de groene knop met een streepje om uit te zoomen of op de groene pijlen voor aangrenzende kaarten.


METAR-TAF: